sensor_id;sensor_type;location;lat;lon;timestamp;temperature;humidity
26336;DHT22;14047;50.936;4.654;2022-11-22T00:02:17;7.70;99.90
26336;DHT22;14047;50.936;4.654;2022-11-22T00:04:43;7.80;99.90
26336;DHT22;14047;50.936;4.654;2022-11-22T00:07:08;7.70;99.90
26336;DHT22;14047;50.936;4.654;2022-11-22T00:09:34;7.70;99.90
26336;DHT22;14047;50.936;4.654;2022-11-22T00:12:00;7.60;99.90
26336;DHT22;14047;50.936;4.654;2022-11-22T00:14:25;7.60;99.90
26336;DHT22;14047;50.936;4.654;2022-11-22T00:16:51;7.60;99.90
26336;DHT22;14047;50.936;4.654;2022-11-22T00:19:16;7.70;99.90
26336;DHT22;14047;50.936;4.654;2022-11-22T00:21:42;7.80;99.90
26336;DHT22;14047;50.936;4.654;2022-11-22T00:24:08;7.60;99.90
26336;DHT22;14047;50.936;4.654;2022-11-22T00:26:33;7.50;99.90
26336;DHT22;14047;50.936;4.654;2022-11-22T00:28:59;7.40;99.90
26336;DHT22;14047;50.936;4.654;2022-11-22T00:31:25;7.30;99.90
26336;DHT22;14047;50.936;4.654;2022-11-22T00:33:51;7.40;99.90
26336;DHT22;14047;50.936;4.654;2022-11-22T00:36:16;7.40;99.90
26336;DHT22;14047;50.936;4.654;2022-11-22T00:38:43;7.30;99.90
26336;DHT22;14047;50.936;4.654;2022-11-22T00:41:09;7.30;99.90
26336;DHT22;14047;50.936;4.654;2022-11-22T00:43:35;7.40;99.90
26336;DHT22;14047;50.936;4.654;2022-11-22T00:46:00;7.40;99.90
26336;DHT22;14047;50.936;4.654;2022-11-22T00:48:26;7.40;99.90
26336;DHT22;14047;50.936;4.654;2022-11-22T00:50:52;7.30;99.90
26336;DHT22;14047;50.936;4.654;2022-11-22T00:53:17;7.30;99.90
26336;DHT22;14047;50.936;4.654;2022-11-22T00:55:46;7.10;99.90
26336;DHT22;14047;50.936;4.654;2022-11-22T00:58:13;7.00;99.90
26336;DHT22;14047;50.936;4.654;2022-11-22T01:00:38;7.00;99.90
26336;DHT22;14047;50.936;4.654;2022-11-22T01:03:04;6.90;99.90
26336;DHT22;14047;50.936;4.654;2022-11-22T01:05:30;6.90;99.90
26336;DHT22;14047;50.936;4.654;2022-11-22T01:07:55;6.90;99.90
26336;DHT22;14047;50.936;4.654;2022-11-22T01:10:21;6.90;99.90
26336;DHT22;14047;50.936;4.654;2022-11-22T01:12:47;6.90;99.90
26336;DHT22;14047;50.936;4.654;2022-11-22T01:15:13;6.80;99.90
26336;DHT22;14047;50.936;4.654;2022-11-22T01:17:38;6.80;99.90
26336;DHT22;14047;50.936;4.654;2022-11-22T01:20:04;6.90;99.90
26336;DHT22;14047;50.936;4.654;2022-11-22T01:22:31;6.90;99.90
26336;DHT22;14047;50.936;4.654;2022-11-22T01:24:56;6.90;99.90
26336;DHT22;14047;50.936;4.654;2022-11-22T01:27:22;6.80;99.90
26336;DHT22;14047;50.936;4.654;2022-11-22T01:29:48;6.80;99.90
26336;DHT22;14047;50.936;4.654;2022-11-22T01:32:17;6.80;99.90
26336;DHT22;14047;50.936;4.654;2022-11-22T01:34:43;6.70;99.90
26336;DHT22;14047;50.936;4.654;2022-11-22T01:37:08;6.60;99.90
26336;DHT22;14047;50.936;4.654;2022-11-22T01:39:34;6.40;99.90
26336;DHT22;14047;50.936;4.654;2022-11-22T01:42:00;6.40;99.90
26336;DHT22;14047;50.936;4.654;2022-11-22T01:44:28;6.40;99.90
26336;DHT22;14047;50.936;4.654;2022-11-22T01:46:58;6.50;99.90
26336;DHT22;14047;50.936;4.654;2022-11-22T01:49:32;6.60;99.90
26336;DHT22;14047;50.936;4.654;2022-11-22T01:52:20;6.60;99.90
26336;DHT22;14047;50.936;4.654;2022-11-22T01:54:52;6.60;99.90
26336;DHT22;14047;50.936;4.654;2022-11-22T01:57:23;6.70;99.90
26336;DHT22;14047;50.936;4.654;2022-11-22T01:59:57;6.60;99.90
26336;DHT22;14047;50.936;4.654;2022-11-22T02:02:23;6.60;99.90
26336;DHT22;14047;50.936;4.654;2022-11-22T02:04:53;6.60;99.90
26336;DHT22;14047;50.936;4.654;2022-11-22T02:07:35;6.60;99.90
26336;DHT22;14047;50.936;4.654;2022-11-22T02:10:05;6.60;99.90
26336;DHT22;14047;50.936;4.654;2022-11-22T02:12:33;6.40;99.90
26336;DHT22;14047;50.936;4.654;2022-11-22T02:15:00;6.50;99.90
26336;DHT22;14047;50.936;4.654;2022-11-22T02:17:26;6.60;99.90
26336;DHT22;14047;50.936;4.654;2022-11-22T02:19:52;6.60;99.90
26336;DHT22;14047;50.936;4.654;2022-11-22T02:22:39;6.60;99.90
26336;DHT22;14047;50.936;4.654;2022-11-22T02:27:42;6.50;99.90
26336;DHT22;14047;50.936;4.654;2022-11-22T02:30:08;6.50;99.90
26336;DHT22;14047;50.936;4.654;2022-11-22T02:32:34;6.50;99.90
26336;DHT22;14047;50.936;4.654;2022-11-22T02:35:00;6.60;99.90
26336;DHT22;14047;50.936;4.654;2022-11-22T02:37:28;6.60;99.90
26336;DHT22;14047;50.936;4.654;2022-11-22T02:40:02;6.60;99.90
26336;DHT22;14047;50.936;4.654;2022-11-22T02:42:29;6.60;99.90
26336;DHT22;14047;50.936;4.654;2022-11-22T02:44:55;6.40;99.90
26336;DHT22;14047;50.936;4.654;2022-11-22T02:47:21;6.40;99.90
26336;DHT22;14047;50.936;4.654;2022-11-22T02:49:47;6.30;99.90
26336;DHT22;14047;50.936;4.654;2022-11-22T02:52:18;6.30;99.90
26336;DHT22;14047;50.936;4.654;2022-11-22T02:54:45;6.40;99.90
26336;DHT22;14047;50.936;4.654;2022-11-22T02:57:11;6.40;99.90
26336;DHT22;14047;50.936;4.654;2022-11-22T02:59:37;6.50;99.90
26336;DHT22;14047;50.936;4.654;2022-11-22T03:02:02;6.50;99.90
26336;DHT22;14047;50.936;4.654;2022-11-22T03:04:28;6.50;99.90
26336;DHT22;14047;50.936;4.654;2022-11-22T03:06:55;6.30;99.90
26336;DHT22;14047;50.936;4.654;2022-11-22T03:09:23;6.30;99.90
26336;DHT22;14047;50.936;4.654;2022-11-22T03:11:53;6.20;99.90
26336;DHT22;14047;50.936;4.654;2022-11-22T03:14:19;6.30;99.90
26336;DHT22;14047;50.936;4.654;2022-11-22T03:16:45;6.40;99.90
26336;DHT22;14047;50.936;4.654;2022-11-22T03:19:12;6.50;99.90
26336;DHT22;14047;50.936;4.654;2022-11-22T03:21:39;6.50;99.90
26336;DHT22;14047;50.936;4.654;2022-11-22T03:24:06;6.60;99.90
26336;DHT22;14047;50.936;4.654;2022-11-22T03:26:31;6.40;99.90
26336;DHT22;14047;50.936;4.654;2022-11-22T03:28:57;6.40;99.90
26336;DHT22;14047;50.936;4.654;2022-11-22T03:31:25;6.50;99.90
26336;DHT22;14047;50.936;4.654;2022-11-22T03:33:51;6.50;99.90
26336;DHT22;14047;50.936;4.654;2022-11-22T03:36:17;6.40;99.90
26336;DHT22;14047;50.936;4.654;2022-11-22T03:38:43;6.50;99.90
26336;DHT22;14047;50.936;4.654;2022-11-22T03:41:08;6.50;99.90
26336;DHT22;14047;50.936;4.654;2022-11-22T03:43:34;6.50;99.90
26336;DHT22;14047;50.936;4.654;2022-11-22T03:46:00;6.50;99.90
26336;DHT22;14047;50.936;4.654;2022-11-22T03:48:25;6.40;99.90
26336;DHT22;14047;50.936;4.654;2022-11-22T03:50:51;6.40;99.90
26336;DHT22;14047;50.936;4.654;2022-11-22T03:53:16;6.30;99.90
26336;DHT22;14047;50.936;4.654;2022-11-22T03:55:42;6.20;99.90
26336;DHT22;14047;50.936;4.654;2022-11-22T03:58:08;6.00;99.90
26336;DHT22;14047;50.936;4.654;2022-11-22T04:00:34;6.00;99.90
26336;DHT22;14047;50.936;4.654;2022-11-22T04:03:00;6.00;99.90
26336;DHT22;14047;50.936;4.654;2022-11-22T04:05:26;6.10;99.90
26336;DHT22;14047;50.936;4.654;2022-11-22T04:07:51;6.20;99.90
26336;DHT22;14047;50.936;4.654;2022-11-22T04:10:21;6.20;99.90
26336;DHT22;14047;50.936;4.654;2022-11-22T04:12:47;6.30;99.90
26336;DHT22;14047;50.936;4.654;2022-11-22T04:15:13;6.30;99.90
26336;DHT22;14047;50.936;4.654;2022-11-22T04:17:43;6.40;99.90
26336;DHT22;14047;50.936;4.654;2022-11-22T04:20:19;6.40;99.90
26336;DHT22;14047;50.936;4.654;2022-11-22T04:23:14;6.40;99.90
26336;DHT22;14047;50.936;4.654;2022-11-22T04:25:44;6.30;99.90
26336;DHT22;14047;50.936;4.654;2022-11-22T04:28:14;6.10;99.90
26336;DHT22;14047;50.936;4.654;2022-11-22T04:30:41;6.20;99.90
26336;DHT22;14047;50.936;4.654;2022-11-22T04:33:26;6.10;99.90
26336;DHT22;14047;50.936;4.654;2022-11-22T04:35:51;6.10;99.90
26336;DHT22;14047;50.936;4.654;2022-11-22T04:38:17;6.20;99.90
26336;DHT22;14047;50.936;4.654;2022-11-22T04:40:43;6.20;99.90
26336;DHT22;14047;50.936;4.654;2022-11-22T04:46:01;6.20;99.90
26336;DHT22;14047;50.936;4.654;2022-11-22T04:48:27;6.10;99.90
26336;DHT22;14047;50.936;4.654;2022-11-22T04:50:53;6.10;99.90
26336;DHT22;14047;50.936;4.654;2022-11-22T04:53:41;6.10;99.90
26336;DHT22;14047;50.936;4.654;2022-11-22T04:56:08;6.10;99.90
26336;DHT22;14047;50.936;4.654;2022-11-22T04:58:34;6.20;99.90
26336;DHT22;14047;50.936;4.654;2022-11-22T05:01:00;6.10;99.90
26336;DHT22;14047;50.936;4.654;2022-11-22T05:03:25;6.10;99.90
26336;DHT22;14047;50.936;4.654;2022-11-22T05:05:51;6.10;99.90
26336;DHT22;14047;50.936;4.654;2022-11-22T05:08:17;6.10;99.90
26336;DHT22;14047;50.936;4.654;2022-11-22T05:10:42;6.10;99.90
26336;DHT22;14047;50.936;4.654;2022-11-22T05:13:32;6.10;99.90
26336;DHT22;14047;50.936;4.654;2022-11-22T05:15:59;6.10;99.90
26336;DHT22;14047;50.936;4.654;2022-11-22T05:18:25;6.00;99.90
26336;DHT22;14047;50.936;4.654;2022-11-22T05:20:51;6.00;99.90
26336;DHT22;14047;50.936;4.654;2022-11-22T05:23:18;6.10;99.90
26336;DHT22;14047;50.936;4.654;2022-11-22T05:26:04;6.00;99.90
26336;DHT22;14047;50.936;4.654;2022-11-22T05:28:37;6.00;99.90
26336;DHT22;14047;50.936;4.654;2022-11-22T05:31:07;6.10;99.90
26336;DHT22;14047;50.936;4.654;2022-11-22T05:33:35;6.00;99.90
26336;DHT22;14047;50.936;4.654;2022-11-22T05:36:01;6.00;99.90
26336;DHT22;14047;50.936;4.654;2022-11-22T05:38:30;6.00;99.90
26336;DHT22;14047;50.936;4.654;2022-11-22T05:41:01;6.00;99.90
26336;DHT22;14047;50.936;4.654;2022-11-22T05:43:27;6.00;99.90
26336;DHT22;14047;50.936;4.654;2022-11-22T05:45:53;6.10;99.90
26336;DHT22;14047;50.936;4.654;2022-11-22T05:48:19;6.10;99.90
26336;DHT22;14047;50.936;4.654;2022-11-22T05:50:44;6.10;99.90
26336;DHT22;14047;50.936;4.654;2022-11-22T05:53:10;6.00;99.90
26336;DHT22;14047;50.936;4.654;2022-11-22T05:55:35;5.90;99.90
26336;DHT22;14047;50.936;4.654;2022-11-22T05:58:01;5.90;99.90
26336;DHT22;14047;50.936;4.654;2022-11-22T06:00:28;6.00;99.90
26336;DHT22;14047;50.936;4.654;2022-11-22T06:03:02;6.00;99.90
26336;DHT22;14047;50.936;4.654;2022-11-22T06:05:28;6.00;99.90
26336;DHT22;14047;50.936;4.654;2022-11-22T06:07:56;6.10;99.90
26336;DHT22;14047;50.936;4.654;2022-11-22T06:10:23;6.10;99.90
26336;DHT22;14047;50.936;4.654;2022-11-22T06:12:49;6.20;99.90
26336;DHT22;14047;50.936;4.654;2022-11-22T06:15:14;6.40;99.90
26336;DHT22;14047;50.936;4.654;2022-11-22T06:17:41;6.50;99.90
26336;DHT22;14047;50.936;4.654;2022-11-22T06:20:07;6.60;99.90
26336;DHT22;14047;50.936;4.654;2022-11-22T06:22:33;6.70;99.90
26336;DHT22;14047;50.936;4.654;2022-11-22T06:24:58;6.70;99.90
26336;DHT22;14047;50.936;4.654;2022-11-22T06:27:24;6.80;99.90
26336;DHT22;14047;50.936;4.654;2022-11-22T06:29:49;6.90;99.90
26336;DHT22;14047;50.936;4.654;2022-11-22T06:32:15;7.10;99.90
26336;DHT22;14047;50.936;4.654;2022-11-22T06:34:41;7.20;99.90
26336;DHT22;14047;50.936;4.654;2022-11-22T06:37:06;7.30;99.90
26336;DHT22;14047;50.936;4.654;2022-11-22T06:39:32;7.40;99.90
26336;DHT22;14047;50.936;4.654;2022-11-22T06:41:57;7.40;99.90
26336;DHT22;14047;50.936;4.654;2022-11-22T06:44:23;7.40;99.90
26336;DHT22;14047;50.936;4.654;2022-11-22T06:46:49;7.50;99.90
26336;DHT22;14047;50.936;4.654;2022-11-22T06:49:14;7.50;99.90
26336;DHT22;14047;50.936;4.654;2022-11-22T06:51:40;7.60;99.90
26336;DHT22;14047;50.936;4.654;2022-11-22T06:54:09;7.60;99.90
26336;DHT22;14047;50.936;4.654;2022-11-22T06:56:36;7.70;99.90
26336;DHT22;14047;50.936;4.654;2022-11-22T06:59:04;7.70;99.90
26336;DHT22;14047;50.936;4.654;2022-11-22T07:01:30;7.60;99.90
26336;DHT22;14047;50.936;4.654;2022-11-22T07:03:57;7.60;99.90
26336;DHT22;14047;50.936;4.654;2022-11-22T07:06:25;7.70;99.90
26336;DHT22;14047;50.936;4.654;2022-11-22T07:08:51;7.60;99.90
26336;DHT22;14047;50.936;4.654;2022-11-22T07:11:22;7.60;99.90
26336;DHT22;14047;50.936;4.654;2022-11-22T07:13:48;7.70;99.90
26336;DHT22;14047;50.936;4.654;2022-11-22T07:16:19;7.80;99.90
26336;DHT22;14047;50.936;4.654;2022-11-22T07:18:45;7.90;99.90
26336;DHT22;14047;50.936;4.654;2022-11-22T07:21:17;7.90;99.90
26336;DHT22;14047;50.936;4.654;2022-11-22T07:23:44;7.90;99.90
26336;DHT22;14047;50.936;4.654;2022-11-22T07:26:11;7.90;99.90
26336;DHT22;14047;50.936;4.654;2022-11-22T07:28:37;8.00;99.90
26336;DHT22;14047;50.936;4.654;2022-11-22T07:31:05;8.00;99.90
26336;DHT22;14047;50.936;4.654;2022-11-22T07:33:31;8.00;99.90
26336;DHT22;14047;50.936;4.654;2022-11-22T07:36:07;8.00;99.90
26336;DHT22;14047;50.936;4.654;2022-11-22T07:38:34;7.90;99.90
26336;DHT22;14047;50.936;4.654;2022-11-22T07:41:00;7.90;99.90
26336;DHT22;14047;50.936;4.654;2022-11-22T07:43:26;7.90;99.90
26336;DHT22;14047;50.936;4.654;2022-11-22T07:45:52;8.00;99.90
26336;DHT22;14047;50.936;4.654;2022-11-22T07:48:18;8.00;99.90
26336;DHT22;14047;50.936;4.654;2022-11-22T07:50:43;8.00;99.90
26336;DHT22;14047;50.936;4.654;2022-11-22T07:53:09;8.00;99.90
26336;DHT22;14047;50.936;4.654;2022-11-22T07:55:35;8.00;99.90
26336;DHT22;14047;50.936;4.654;2022-11-22T07:58:01;8.10;99.90
26336;DHT22;14047;50.936;4.654;2022-11-22T08:00:27;8.10;99.90
26336;DHT22;14047;50.936;4.654;2022-11-22T08:02:53;8.20;99.90
26336;DHT22;14047;50.936;4.654;2022-11-22T08:05:20;8.30;99.90
26336;DHT22;14047;50.936;4.654;2022-11-22T08:07:49;8.20;99.90
26336;DHT22;14047;50.936;4.654;2022-11-22T08:10:16;8.30;99.90
26336;DHT22;14047;50.936;4.654;2022-11-22T08:12:42;8.30;99.90
26336;DHT22;14047;50.936;4.654;2022-11-22T08:15:09;8.20;99.90
26336;DHT22;14047;50.936;4.654;2022-11-22T08:17:35;8.20;99.90
26336;DHT22;14047;50.936;4.654;2022-11-22T08:20:01;8.20;99.90
26336;DHT22;14047;50.936;4.654;2022-11-22T08:22:26;8.20;99.90
26336;DHT22;14047;50.936;4.654;2022-11-22T08:24:52;8.30;99.90
26336;DHT22;14047;50.936;4.654;2022-11-22T08:27:18;8.30;99.90
26336;DHT22;14047;50.936;4.654;2022-11-22T08:29:43;8.20;99.90
26336;DHT22;14047;50.936;4.654;2022-11-22T08:32:09;8.20;99.90
26336;DHT22;14047;50.936;4.654;2022-11-22T08:34:35;8.30;99.90
26336;DHT22;14047;50.936;4.654;2022-11-22T08:37:00;8.40;99.90
26336;DHT22;14047;50.936;4.654;2022-11-22T08:39:26;8.40;99.90
26336;DHT22;14047;50.936;4.654;2022-11-22T08:41:51;8.40;99.90
26336;DHT22;14047;50.936;4.654;2022-11-22T08:44:17;8.50;99.90
26336;DHT22;14047;50.936;4.654;2022-11-22T08:46:43;8.50;99.90
26336;DHT22;14047;50.936;4.654;2022-11-22T08:49:11;8.60;99.90
26336;DHT22;14047;50.936;4.654;2022-11-22T08:51:37;8.50;99.90
26336;DHT22;14047;50.936;4.654;2022-11-22T08:54:02;8.60;99.90
26336;DHT22;14047;50.936;4.654;2022-11-22T08:56:28;8.60;99.90
26336;DHT22;14047;50.936;4.654;2022-11-22T08:58:54;8.60;99.90
26336;DHT22;14047;50.936;4.654;2022-11-22T09:01:20;8.70;99.90
26336;DHT22;14047;50.936;4.654;2022-11-22T09:03:46;8.60;99.90
26336;DHT22;14047;50.936;4.654;2022-11-22T09:06:13;8.60;99.90
26336;DHT22;14047;50.936;4.654;2022-11-22T09:08:39;8.70;99.90
26336;DHT22;14047;50.936;4.654;2022-11-22T09:11:11;8.80;99.90
26336;DHT22;14047;50.936;4.654;2022-11-22T09:13:38;8.90;99.90
26336;DHT22;14047;50.936;4.654;2022-11-22T09:18:33;9.00;99.90
26336;DHT22;14047;50.936;4.654;2022-11-22T09:20:59;8.90;99.90
26336;DHT22;14047;50.936;4.654;2022-11-22T09:23:26;8.80;99.90
26336;DHT22;14047;50.936;4.654;2022-11-22T09:25:59;8.90;99.90
26336;DHT22;14047;50.936;4.654;2022-11-22T09:28:26;9.00;99.90
26336;DHT22;14047;50.936;4.654;2022-11-22T09:31:13;9.10;99.90
26336;DHT22;14047;50.936;4.654;2022-11-22T09:33:40;9.20;99.90
26336;DHT22;14047;50.936;4.654;2022-11-22T09:36:08;9.20;99.90
26336;DHT22;14047;50.936;4.654;2022-11-22T09:38:35;9.10;99.90
26336;DHT22;14047;50.936;4.654;2022-11-22T09:41:05;9.10;99.90
26336;DHT22;14047;50.936;4.654;2022-11-22T09:51:26;9.10;99.90
26336;DHT22;14047;50.936;4.654;2022-11-22T09:54:10;9.10;99.90
26336;DHT22;14047;50.936;4.654;2022-11-22T09:56:38;9.10;99.90
26336;DHT22;14047;50.936;4.654;2022-11-22T09:59:20;9.10;99.90
26336;DHT22;14047;50.936;4.654;2022-11-22T10:01:58;9.10;99.90
26336;DHT22;14047;50.936;4.654;2022-11-22T10:04:39;9.20;99.90
26336;DHT22;14047;50.936;4.654;2022-11-22T10:07:16;9.10;99.90
26336;DHT22;14047;50.936;4.654;2022-11-22T10:14:59;9.00;99.90
26336;DHT22;14047;50.936;4.654;2022-11-22T10:17:58;9.20;99.90
26336;DHT22;14047;50.936;4.654;2022-11-22T10:20:30;9.30;99.90
26336;DHT22;14047;50.936;4.654;2022-11-22T10:22:57;9.30;99.90
26336;DHT22;14047;50.936;4.654;2022-11-22T10:25:45;9.50;99.90
26336;DHT22;14047;50.936;4.654;2022-11-22T10:31:06;9.80;99.90
26336;DHT22;14047;50.936;4.654;2022-11-22T10:39:00;10.00;99.90
26336;DHT22;14047;50.936;4.654;2022-11-22T10:41:52;10.00;99.90
26336;DHT22;14047;50.936;4.654;2022-11-22T10:50:21;10.30;99.90
26336;DHT22;14047;50.936;4.654;2022-11-22T10:55:42;10.40;99.90
26336;DHT22;14047;50.936;4.654;2022-11-22T10:58:13;10.50;99.90
26336;DHT22;14047;50.936;4.654;2022-11-22T11:00:45;10.60;99.90
26336;DHT22;14047;50.936;4.654;2022-11-22T11:03:31;10.70;99.90
26336;DHT22;14047;50.936;4.654;2022-11-22T11:06:15;10.80;99.90
26336;DHT22;14047;50.936;4.654;2022-11-22T11:08:46;10.90;99.90
26336;DHT22;14047;50.936;4.654;2022-11-22T11:11:14;10.90;99.90
26336;DHT22;14047;50.936;4.654;2022-11-22T11:13:52;11.10;99.90
26336;DHT22;14047;50.936;4.654;2022-11-22T11:16:21;10.90;99.90
26336;DHT22;14047;50.936;4.654;2022-11-22T11:19:00;10.80;99.90
26336;DHT22;14047;50.936;4.654;2022-11-22T11:21:30;10.80;99.90
26336;DHT22;14047;50.936;4.654;2022-11-22T11:23:56;10.80;99.90
26336;DHT22;14047;50.936;4.654;2022-11-22T11:26:27;10.80;99.90
26336;DHT22;14047;50.936;4.654;2022-11-22T11:29:41;10.90;99.90
26336;DHT22;14047;50.936;4.654;2022-11-22T11:32:08;10.70;99.90
26336;DHT22;14047;50.936;4.654;2022-11-22T11:34:34;10.80;99.90
26336;DHT22;14047;50.936;4.654;2022-11-22T11:37:03;10.60;99.90
26336;DHT22;14047;50.936;4.654;2022-11-22T11:39:32;10.60;99.90
26336;DHT22;14047;50.936;4.654;2022-11-22T11:41:58;10.60;99.90
26336;DHT22;14047;50.936;4.654;2022-11-22T11:44:33;10.30;99.90
26336;DHT22;14047;50.936;4.654;2022-11-22T11:47:01;10.30;99.90
26336;DHT22;14047;50.936;4.654;2022-11-22T11:49:30;10.20;99.90
26336;DHT22;14047;50.936;4.654;2022-11-22T11:52:10;10.40;99.90
26336;DHT22;14047;50.936;4.654;2022-11-22T11:54:38;10.40;99.90
26336;DHT22;14047;50.936;4.654;2022-11-22T12:02:08;10.50;99.90
26336;DHT22;14047;50.936;4.654;2022-11-22T12:04:48;10.40;99.90
26336;DHT22;14047;50.936;4.654;2022-11-22T12:07:41;10.50;99.90
26336;DHT22;14047;50.936;4.654;2022-11-22T12:16:10;10.50;99.90
26336;DHT22;14047;50.936;4.654;2022-11-22T12:24:41;10.60;99.90
26336;DHT22;14047;50.936;4.654;2022-11-22T12:27:10;10.60;99.90
26336;DHT22;14047;50.936;4.654;2022-11-22T12:29:41;10.60;99.90
26336;DHT22;14047;50.936;4.654;2022-11-22T12:32:28;10.70;99.90
26336;DHT22;14047;50.936;4.654;2022-11-22T12:35:13;10.70;99.90
26336;DHT22;14047;50.936;4.654;2022-11-22T12:38:02;10.80;99.90
26336;DHT22;14047;50.936;4.654;2022-11-22T12:40:39;10.80;99.90
26336;DHT22;14047;50.936;4.654;2022-11-22T12:43:24;10.60;99.90
26336;DHT22;14047;50.936;4.654;2022-11-22T12:45:56;10.60;99.90
26336;DHT22;14047;50.936;4.654;2022-11-22T12:48:36;10.60;99.90
26336;DHT22;14047;50.936;4.654;2022-11-22T12:51:42;10.70;99.90
26336;DHT22;14047;50.936;4.654;2022-11-22T12:54:11;10.80;99.90
26336;DHT22;14047;50.936;4.654;2022-11-22T12:56:50;11.00;99.90
26336;DHT22;14047;50.936;4.654;2022-11-22T13:02:37;11.10;99.90
26336;DHT22;14047;50.936;4.654;2022-11-22T13:05:14;11.20;99.90
26336;DHT22;14047;50.936;4.654;2022-11-22T13:07:46;11.00;99.90
26336;DHT22;14047;50.936;4.654;2022-11-22T13:10:41;11.10;99.90
26336;DHT22;14047;50.936;4.654;2022-11-22T13:13:23;11.20;99.90
26336;DHT22;14047;50.936;4.654;2022-11-22T13:15:52;11.30;99.90
26336;DHT22;14047;50.936;4.654;2022-11-22T13:18:29;11.20;99.90
26336;DHT22;14047;50.936;4.654;2022-11-22T13:27:02;10.90;99.90
26336;DHT22;14047;50.936;4.654;2022-11-22T13:29:33;10.80;99.90
26336;DHT22;14047;50.936;4.654;2022-11-22T13:34:32;10.80;99.90
26336;DHT22;14047;50.936;4.654;2022-11-22T13:37:13;10.70;99.90
26336;DHT22;14047;50.936;4.654;2022-11-22T13:39:45;10.70;99.90
26336;DHT22;14047;50.936;4.654;2022-11-22T13:42:21;10.60;99.90
26336;DHT22;14047;50.936;4.654;2022-11-22T13:44:50;10.60;99.90
26336;DHT22;14047;50.936;4.654;2022-11-22T13:49:49;10.60;99.90
26336;DHT22;14047;50.936;4.654;2022-11-22T14:02:46;11.00;99.90
26336;DHT22;14047;50.936;4.654;2022-11-22T14:07:51;11.10;99.90
26336;DHT22;14047;50.936;4.654;2022-11-22T14:10:56;11.20;99.90
26336;DHT22;14047;50.936;4.654;2022-11-22T14:21:54;10.60;99.90
26336;DHT22;14047;50.936;4.654;2022-11-22T14:24:53;10.70;99.90
26336;DHT22;14047;50.936;4.654;2022-11-22T14:27:44;10.90;99.90
26336;DHT22;14047;50.936;4.654;2022-11-22T14:30:18;10.90;99.90
26336;DHT22;14047;50.936;4.654;2022-11-22T14:35:36;10.90;99.90
26336;DHT22;14047;50.936;4.654;2022-11-22T14:40:39;10.80;99.90
26336;DHT22;14047;50.936;4.654;2022-11-22T14:45:51;10.70;99.90
26336;DHT22;14047;50.936;4.654;2022-11-22T14:48:22;10.50;99.90
26336;DHT22;14047;50.936;4.654;2022-11-22T14:51:07;10.50;99.90
26336;DHT22;14047;50.936;4.654;2022-11-22T14:53:45;10.60;99.90
26336;DHT22;14047;50.936;4.654;2022-11-22T14:56:16;10.50;99.90
26336;DHT22;14047;50.936;4.654;2022-11-22T15:04:44;10.10;99.90
26336;DHT22;14047;50.936;4.654;2022-11-22T15:10:28;9.90;99.90
26336;DHT22;14047;50.936;4.654;2022-11-22T15:15:39;9.60;99.90
26336;DHT22;14047;50.936;4.654;2022-11-22T15:20:43;9.50;99.90
26336;DHT22;14047;50.936;4.654;2022-11-22T15:23:16;9.40;99.90
26336;DHT22;14047;50.936;4.654;2022-11-22T15:25:46;9.40;99.90
26336;DHT22;14047;50.936;4.654;2022-11-22T15:28:19;9.40;99.90
26336;DHT22;14047;50.936;4.654;2022-11-22T15:30:46;9.40;99.90
26336;DHT22;14047;50.936;4.654;2022-11-22T15:33:28;9.30;99.90
26336;DHT22;14047;50.936;4.654;2022-11-22T15:38:58;9.30;99.90
26336;DHT22;14047;50.936;4.654;2022-11-22T15:41:29;9.30;99.90
26336;DHT22;14047;50.936;4.654;2022-11-22T15:43:57;9.40;99.90
26336;DHT22;14047;50.936;4.654;2022-11-22T15:46:24;9.40;99.90
26336;DHT22;14047;50.936;4.654;2022-11-22T15:48:54;9.50;99.90
26336;DHT22;14047;50.936;4.654;2022-11-22T15:51:26;9.70;99.90
26336;DHT22;14047;50.936;4.654;2022-11-22T15:56:36;9.80;99.90
26336;DHT22;14047;50.936;4.654;2022-11-22T15:59:29;9.90;99.90
26336;DHT22;14047;50.936;4.654;2022-11-22T16:01:58;9.60;99.90
26336;DHT22;14047;50.936;4.654;2022-11-22T16:04:32;9.60;99.90
26336;DHT22;14047;50.936;4.654;2022-11-22T16:07:01;9.70;99.90
26336;DHT22;14047;50.936;4.654;2022-11-22T16:09:31;9.70;99.90
26336;DHT22;14047;50.936;4.654;2022-11-22T16:11:59;9.80;99.90
26336;DHT22;14047;50.936;4.654;2022-11-22T16:14:47;9.90;99.90
26336;DHT22;14047;50.936;4.654;2022-11-22T16:19:52;9.90;99.90
26336;DHT22;14047;50.936;4.654;2022-11-22T16:22:31;10.00;99.90
26336;DHT22;14047;50.936;4.654;2022-11-22T16:25:19;9.80;99.90
26336;DHT22;14047;50.936;4.654;2022-11-22T16:27:45;9.80;99.90
26336;DHT22;14047;50.936;4.654;2022-11-22T16:30:12;10.00;99.90
26336;DHT22;14047;50.936;4.654;2022-11-22T16:32:37;10.10;99.90
26336;DHT22;14047;50.936;4.654;2022-11-22T16:35:12;10.20;99.90
26336;DHT22;14047;50.936;4.654;2022-11-22T16:37:41;10.20;99.90
26336;DHT22;14047;50.936;4.654;2022-11-22T16:40:08;10.20;99.90
26336;DHT22;14047;50.936;4.654;2022-11-22T16:42:34;10.30;99.90
26336;DHT22;14047;50.936;4.654;2022-11-22T16:45:03;10.40;99.90
26336;DHT22;14047;50.936;4.654;2022-11-22T16:47:28;10.40;99.90
26336;DHT22;14047;50.936;4.654;2022-11-22T16:49:54;10.50;99.90
26336;DHT22;14047;50.936;4.654;2022-11-22T16:52:20;10.50;99.90
26336;DHT22;14047;50.936;4.654;2022-11-22T16:54:45;10.50;99.90
26336;DHT22;14047;50.936;4.654;2022-11-22T16:57:12;10.50;99.90
26336;DHT22;14047;50.936;4.654;2022-11-22T16:59:38;10.50;99.90
26336;DHT22;14047;50.936;4.654;2022-11-22T17:02:11;10.50;99.90
26336;DHT22;14047;50.936;4.654;2022-11-22T17:04:37;10.60;99.90
26336;DHT22;14047;50.936;4.654;2022-11-22T17:07:10;10.60;99.90
26336;DHT22;14047;50.936;4.654;2022-11-22T17:09:36;10.40;99.90
26336;DHT22;14047;50.936;4.654;2022-11-22T17:12:09;10.50;99.90
26336;DHT22;14047;50.936;4.654;2022-11-22T17:14:36;10.50;99.90
26336;DHT22;14047;50.936;4.654;2022-11-22T17:17:02;10.50;99.90
26336;DHT22;14047;50.936;4.654;2022-11-22T17:19:27;10.50;99.90
26336;DHT22;14047;50.936;4.654;2022-11-22T17:21:53;10.40;99.90
26336;DHT22;14047;50.936;4.654;2022-11-22T17:24:20;10.50;99.90
26336;DHT22;14047;50.936;4.654;2022-11-22T17:26:46;10.40;99.90
26336;DHT22;14047;50.936;4.654;2022-11-22T17:29:11;10.40;99.90
26336;DHT22;14047;50.936;4.654;2022-11-22T17:31:37;10.60;99.90
26336;DHT22;14047;50.936;4.654;2022-11-22T17:34:03;10.60;99.90
26336;DHT22;14047;50.936;4.654;2022-11-22T17:36:31;10.50;99.90
26336;DHT22;14047;50.936;4.654;2022-11-22T17:38:58;10.60;99.90
26336;DHT22;14047;50.936;4.654;2022-11-22T17:41:24;10.50;99.90
26336;DHT22;14047;50.936;4.654;2022-11-22T17:43:51;10.30;99.90
26336;DHT22;14047;50.936;4.654;2022-11-22T17:46:17;10.30;99.90
26336;DHT22;14047;50.936;4.654;2022-11-22T17:48:43;10.30;99.90
26336;DHT22;14047;50.936;4.654;2022-11-22T17:51:10;10.50;99.90
26336;DHT22;14047;50.936;4.654;2022-11-22T17:53:37;10.60;99.90
26336;DHT22;14047;50.936;4.654;2022-11-22T17:56:03;10.70;99.90
26336;DHT22;14047;50.936;4.654;2022-11-22T17:58:30;10.90;99.90
26336;DHT22;14047;50.936;4.654;2022-11-22T18:03:32;10.90;99.90